sensor_id;sensor_type;location;lat;lon;timestamp;temperature;humidity
22416;DHT22;12204;50.600;4.608;2024-02-28T00:03:55;21.60;72.70
22416;DHT22;12204;50.600;4.608;2024-02-28T00:08:59;21.60;72.50
22416;DHT22;12204;50.600;4.608;2024-02-28T00:14:04;21.60;72.20
22416;DHT22;12204;50.600;4.608;2024-02-28T00:19:07;21.70;72.10
22416;DHT22;12204;50.600;4.608;2024-02-28T00:24:11;21.60;71.80
22416;DHT22;12204;50.600;4.608;2024-02-28T00:29:16;21.70;71.80
22416;DHT22;12204;50.600;4.608;2024-02-28T00:34:19;21.70;71.70
22416;DHT22;12204;50.600;4.608;2024-02-28T00:39:23;21.70;71.80
22416;DHT22;12204;50.600;4.608;2024-02-28T00:44:27;21.70;71.90
22416;DHT22;12204;50.600;4.608;2024-02-28T00:49:31;21.70;71.90
22416;DHT22;12204;50.600;4.608;2024-02-28T00:54:34;21.70;72.10
22416;DHT22;12204;50.600;4.608;2024-02-28T00:59:39;21.70;71.90
22416;DHT22;12204;50.600;4.608;2024-02-28T01:04:44;21.70;71.80
22416;DHT22;12204;50.600;4.608;2024-02-28T01:09:47;21.60;72.00
22416;DHT22;12204;50.600;4.608;2024-02-28T01:14:52;21.60;71.90
22416;DHT22;12204;50.600;4.608;2024-02-28T01:19:56;21.60;71.90
22416;DHT22;12204;50.600;4.608;2024-02-28T01:25:00;21.60;72.00
22416;DHT22;12204;50.600;4.608;2024-02-28T01:30:07;21.60;72.10
22416;DHT22;12204;50.600;4.608;2024-02-28T01:35:11;21.50;71.80
22416;DHT22;12204;50.600;4.608;2024-02-28T01:40:15;21.60;72.00
22416;DHT22;12204;50.600;4.608;2024-02-28T01:45:20;21.50;71.80
22416;DHT22;12204;50.600;4.608;2024-02-28T01:50:24;21.50;71.70
22416;DHT22;12204;50.600;4.608;2024-02-28T01:55:28;21.50;72.00
22416;DHT22;12204;50.600;4.608;2024-02-28T02:00:33;21.50;72.00
22416;DHT22;12204;50.600;4.608;2024-02-28T02:05:37;21.50;72.20
22416;DHT22;12204;50.600;4.608;2024-02-28T02:10:41;21.40;72.00
22416;DHT22;12204;50.600;4.608;2024-02-28T02:15:46;21.40;71.80
22416;DHT22;12204;50.600;4.608;2024-02-28T02:20:51;21.50;71.90
22416;DHT22;12204;50.600;4.608;2024-02-28T02:26:01;21.50;71.70
22416;DHT22;12204;50.600;4.608;2024-02-28T02:31:04;21.50;71.00
22416;DHT22;12204;50.600;4.608;2024-02-28T02:36:08;21.60;71.10
22416;DHT22;12204;50.600;4.608;2024-02-28T02:41:13;21.60;70.80
22416;DHT22;12204;50.600;4.608;2024-02-28T02:46:17;21.60;70.70
22416;DHT22;12204;50.600;4.608;2024-02-28T02:51:20;21.60;70.50
22416;DHT22;12204;50.600;4.608;2024-02-28T02:56:25;21.70;70.20
22416;DHT22;12204;50.600;4.608;2024-02-28T03:01:28;21.60;70.00
22416;DHT22;12204;50.600;4.608;2024-02-28T03:06:32;21.70;69.70
22416;DHT22;12204;50.600;4.608;2024-02-28T03:11:37;21.70;69.60
22416;DHT22;12204;50.600;4.608;2024-02-28T03:16:41;21.70;69.50
22416;DHT22;12204;50.600;4.608;2024-02-28T03:21:45;21.70;69.60
22416;DHT22;12204;50.600;4.608;2024-02-28T03:26:50;21.70;69.10
22416;DHT22;12204;50.600;4.608;2024-02-28T03:31:53;21.70;69.00
22416;DHT22;12204;50.600;4.608;2024-02-28T03:36:57;21.70;69.10
22416;DHT22;12204;50.600;4.608;2024-02-28T03:42:02;21.70;69.30
22416;DHT22;12204;50.600;4.608;2024-02-28T03:47:06;21.70;69.30
22416;DHT22;12204;50.600;4.608;2024-02-28T03:52:09;21.70;69.30
22416;DHT22;12204;50.600;4.608;2024-02-28T03:57:14;21.70;68.90
22416;DHT22;12204;50.600;4.608;2024-02-28T04:02:17;21.70;69.10
22416;DHT22;12204;50.600;4.608;2024-02-28T04:07:21;21.70;68.80
22416;DHT22;12204;50.600;4.608;2024-02-28T04:12:26;21.70;68.90
22416;DHT22;12204;50.600;4.608;2024-02-28T04:17:29;21.80;68.60
22416;DHT22;12204;50.600;4.608;2024-02-28T04:22:33;21.80;68.30
22416;DHT22;12204;50.600;4.608;2024-02-28T04:27:38;21.80;68.20
22416;DHT22;12204;50.600;4.608;2024-02-28T04:32:41;21.80;68.20
22416;DHT22;12204;50.600;4.608;2024-02-28T04:37:45;21.80;68.10
22416;DHT22;12204;50.600;4.608;2024-02-28T04:42:51;21.80;68.20
22416;DHT22;12204;50.600;4.608;2024-02-28T04:47:54;21.80;68.10
22416;DHT22;12204;50.600;4.608;2024-02-28T04:52:59;21.80;68.00
22416;DHT22;12204;50.600;4.608;2024-02-28T04:58:04;21.80;67.80
22416;DHT22;12204;50.600;4.608;2024-02-28T05:03:08;21.80;68.10
22416;DHT22;12204;50.600;4.608;2024-02-28T05:08:12;21.80;68.00
22416;DHT22;12204;50.600;4.608;2024-02-28T05:13:16;21.70;67.70
22416;DHT22;12204;50.600;4.608;2024-02-28T05:18:20;21.70;67.80
22416;DHT22;12204;50.600;4.608;2024-02-28T05:23:23;21.70;67.70
22416;DHT22;12204;50.600;4.608;2024-02-28T05:28:28;21.70;67.60
22416;DHT22;12204;50.600;4.608;2024-02-28T05:33:32;21.70;67.50
22416;DHT22;12204;50.600;4.608;2024-02-28T05:38:35;21.70;67.50
22416;DHT22;12204;50.600;4.608;2024-02-28T05:43:40;21.70;67.40
22416;DHT22;12204;50.600;4.608;2024-02-28T05:48:44;21.70;67.50
22416;DHT22;12204;50.600;4.608;2024-02-28T05:53:48;21.70;67.50
22416;DHT22;12204;50.600;4.608;2024-02-28T05:58:54;21.70;67.60
22416;DHT22;12204;50.600;4.608;2024-02-28T06:03:57;21.60;67.70
22416;DHT22;12204;50.600;4.608;2024-02-28T06:09:01;21.60;67.70
22416;DHT22;12204;50.600;4.608;2024-02-28T06:14:06;21.60;67.70
22416;DHT22;12204;50.600;4.608;2024-02-28T06:19:10;21.60;67.80
22416;DHT22;12204;50.600;4.608;2024-02-28T06:24:14;21.50;68.00
22416;DHT22;12204;50.600;4.608;2024-02-28T06:29:19;21.50;68.20
22416;DHT22;12204;50.600;4.608;2024-02-28T06:34:24;21.50;69.00
22416;DHT22;12204;50.600;4.608;2024-02-28T06:39:27;21.50;68.20
22416;DHT22;12204;50.600;4.608;2024-02-28T06:44:32;21.40;68.30
22416;DHT22;12204;50.600;4.608;2024-02-28T06:49:35;21.40;68.50
22416;DHT22;12204;50.600;4.608;2024-02-28T06:54:39;21.40;68.50
22416;DHT22;12204;50.600;4.608;2024-02-28T06:59:44;21.40;68.60
22416;DHT22;12204;50.600;4.608;2024-02-28T07:04:47;21.40;69.10
22416;DHT22;12204;50.600;4.608;2024-02-28T07:09:50;21.30;68.80
22416;DHT22;12204;50.600;4.608;2024-02-28T07:14:56;21.30;68.90
22416;DHT22;12204;50.600;4.608;2024-02-28T07:19:59;21.30;69.40
22416;DHT22;12204;50.600;4.608;2024-02-28T07:25:04;21.30;69.40
22416;DHT22;12204;50.600;4.608;2024-02-28T07:30:12;21.30;69.60
22416;DHT22;12204;50.600;4.608;2024-02-28T07:35:16;21.30;69.80
22416;DHT22;12204;50.600;4.608;2024-02-28T07:40:20;21.30;70.00
22416;DHT22;12204;50.600;4.608;2024-02-28T07:45:25;21.30;69.90
22416;DHT22;12204;50.600;4.608;2024-02-28T07:50:29;21.20;69.90
22416;DHT22;12204;50.600;4.608;2024-02-28T07:55:32;21.30;70.00
22416;DHT22;12204;50.600;4.608;2024-02-28T08:00:38;21.30;70.10
22416;DHT22;12204;50.600;4.608;2024-02-28T08:05:43;21.30;70.10
22416;DHT22;12204;50.600;4.608;2024-02-28T08:10:46;21.20;70.10
22416;DHT22;12204;50.600;4.608;2024-02-28T08:15:52;21.20;69.00
22416;DHT22;12204;50.600;4.608;2024-02-28T08:20:56;21.20;67.10
22416;DHT22;12204;50.600;4.608;2024-02-28T08:26:00;21.10;66.30
22416;DHT22;12204;50.600;4.608;2024-02-28T08:31:06;21.10;67.00
22416;DHT22;12204;50.600;4.608;2024-02-28T08:36:10;21.10;67.40
22416;DHT22;12204;50.600;4.608;2024-02-28T08:41:13;21.10;67.60
22416;DHT22;12204;50.600;4.608;2024-02-28T08:46:20;21.10;67.90
22416;DHT22;12204;50.600;4.608;2024-02-28T08:51:23;21.10;68.00
22416;DHT22;12204;50.600;4.608;2024-02-28T08:56:27;21.10;68.20
22416;DHT22;12204;50.600;4.608;2024-02-28T09:01:32;21.10;68.30
22416;DHT22;12204;50.600;4.608;2024-02-28T09:06:36;21.00;68.50
22416;DHT22;12204;50.600;4.608;2024-02-28T09:11:39;21.00;68.60
22416;DHT22;12204;50.600;4.608;2024-02-28T09:16:44;21.00;68.80
22416;DHT22;12204;50.600;4.608;2024-02-28T09:21:48;21.00;68.90
22416;DHT22;12204;50.600;4.608;2024-02-28T09:26:51;21.00;69.00
22416;DHT22;12204;50.600;4.608;2024-02-28T09:31:56;21.00;69.10
22416;DHT22;12204;50.600;4.608;2024-02-28T09:37:00;20.90;69.00
22416;DHT22;12204;50.600;4.608;2024-02-28T09:42:03;21.00;69.30
22416;DHT22;12204;50.600;4.608;2024-02-28T09:47:10;20.90;69.30
22416;DHT22;12204;50.600;4.608;2024-02-28T09:52:14;20.90;69.30
22416;DHT22;12204;50.600;4.608;2024-02-28T09:57:18;20.90;69.40
22416;DHT22;12204;50.600;4.608;2024-02-28T10:02:27;20.90;69.50
22416;DHT22;12204;50.600;4.608;2024-02-28T10:07:34;20.90;69.60
22416;DHT22;12204;50.600;4.608;2024-02-28T10:12:41;20.90;69.60
22416;DHT22;12204;50.600;4.608;2024-02-28T10:17:47;20.80;69.70
22416;DHT22;12204;50.600;4.608;2024-02-28T10:22:52;20.90;70.50
22416;DHT22;12204;50.600;4.608;2024-02-28T10:27:59;20.90;69.80
22416;DHT22;12204;50.600;4.608;2024-02-28T10:33:09;20.90;69.90
22416;DHT22;12204;50.600;4.608;2024-02-28T10:38:15;20.80;69.70
22416;DHT22;12204;50.600;4.608;2024-02-28T10:43:19;20.80;70.40
22416;DHT22;12204;50.600;4.608;2024-02-28T10:48:25;20.80;69.80
22416;DHT22;12204;50.600;4.608;2024-02-28T10:53:36;20.80;69.70
22416;DHT22;12204;50.600;4.608;2024-02-28T10:58:48;20.80;69.20
22416;DHT22;12204;50.600;4.608;2024-02-28T11:03:56;20.90;69.50
22416;DHT22;12204;50.600;4.608;2024-02-28T11:09:00;20.90;69.60
22416;DHT22;12204;50.600;4.608;2024-02-28T11:14:06;20.80;69.50
22416;DHT22;12204;50.600;4.608;2024-02-28T11:19:22;20.90;69.70
22416;DHT22;12204;50.600;4.608;2024-02-28T11:24:28;20.80;69.70
22416;DHT22;12204;50.600;4.608;2024-02-28T11:29:33;20.80;69.80
22416;DHT22;12204;50.600;4.608;2024-02-28T11:34:38;20.80;69.90
22416;DHT22;12204;50.600;4.608;2024-02-28T11:39:46;20.80;70.00
22416;DHT22;12204;50.600;4.608;2024-02-28T11:44:53;20.80;70.00
22416;DHT22;12204;50.600;4.608;2024-02-28T11:50:05;20.80;70.10
22416;DHT22;12204;50.600;4.608;2024-02-28T11:55:11;20.70;70.80
22416;DHT22;12204;50.600;4.608;2024-02-28T12:00:15;20.80;70.30
22416;DHT22;12204;50.600;4.608;2024-02-28T12:05:20;20.70;70.20
22416;DHT22;12204;50.600;4.608;2024-02-28T12:10:25;20.70;70.30
22416;DHT22;12204;50.600;4.608;2024-02-28T12:15:29;20.70;70.40
22416;DHT22;12204;50.600;4.608;2024-02-28T12:20:34;20.70;70.50
22416;DHT22;12204;50.600;4.608;2024-02-28T12:25:38;20.70;70.50
22416;DHT22;12204;50.600;4.608;2024-02-28T12:30:42;20.70;70.60
22416;DHT22;12204;50.600;4.608;2024-02-28T12:35:48;20.70;70.60
22416;DHT22;12204;50.600;4.608;2024-02-28T12:40:53;20.70;70.80
22416;DHT22;12204;50.600;4.608;2024-02-28T12:45:56;20.70;70.80
22416;DHT22;12204;50.600;4.608;2024-02-28T12:51:01;20.70;70.90
22416;DHT22;12204;50.600;4.608;2024-02-28T12:56:05;20.70;71.00
22416;DHT22;12204;50.600;4.608;2024-02-28T13:01:09;20.70;71.10
22416;DHT22;12204;50.600;4.608;2024-02-28T13:06:14;20.70;72.80
22416;DHT22;12204;50.600;4.608;2024-02-28T13:11:18;20.60;70.60
22416;DHT22;12204;50.600;4.608;2024-02-28T13:16:23;20.60;69.10
22416;DHT22;12204;50.600;4.608;2024-02-28T13:21:28;20.60;68.40
22416;DHT22;12204;50.600;4.608;2024-02-28T13:26:31;20.50;67.50
22416;DHT22;12204;50.600;4.608;2024-02-28T13:31:35;20.50;67.50
22416;DHT22;12204;50.600;4.608;2024-02-28T13:36:40;20.50;68.50
22416;DHT22;12204;50.600;4.608;2024-02-28T13:41:44;20.50;68.80
22416;DHT22;12204;50.600;4.608;2024-02-28T13:46:52;20.50;69.40
22416;DHT22;12204;50.600;4.608;2024-02-28T13:51:57;20.50;69.80
22416;DHT22;12204;50.600;4.608;2024-02-28T13:57:00;20.50;69.80
22416;DHT22;12204;50.600;4.608;2024-02-28T14:02:05;20.50;69.90
22416;DHT22;12204;50.600;4.608;2024-02-28T14:07:12;20.50;70.00
22416;DHT22;12204;50.600;4.608;2024-02-28T14:12:18;20.50;70.50
22416;DHT22;12204;50.600;4.608;2024-02-28T14:17:21;20.50;70.60
22416;DHT22;12204;50.600;4.608;2024-02-28T14:22:26;20.40;70.50
22416;DHT22;12204;50.600;4.608;2024-02-28T14:27:29;20.40;70.70
22416;DHT22;12204;50.600;4.608;2024-02-28T14:32:35;20.40;70.60
22416;DHT22;12204;50.600;4.608;2024-02-28T14:37:40;20.40;70.60
22416;DHT22;12204;50.600;4.608;2024-02-28T14:42:45;20.40;70.80
22416;DHT22;12204;50.600;4.608;2024-02-28T14:47:49;20.40;71.20
22416;DHT22;12204;50.600;4.608;2024-02-28T14:52:54;20.40;71.20
22416;DHT22;12204;50.600;4.608;2024-02-28T14:57:57;20.40;71.20
22416;DHT22;12204;50.600;4.608;2024-02-28T15:03:02;20.40;71.40
22416;DHT22;12204;50.600;4.608;2024-02-28T15:08:08;20.40;71.90
22416;DHT22;12204;50.600;4.608;2024-02-28T15:13:13;20.40;71.90
22416;DHT22;12204;50.600;4.608;2024-02-28T15:18:16;20.40;71.70
22416;DHT22;12204;50.600;4.608;2024-02-28T15:23:21;20.40;71.90
22416;DHT22;12204;50.600;4.608;2024-02-28T15:28:25;20.40;72.10
22416;DHT22;12204;50.600;4.608;2024-02-28T15:33:29;20.40;71.70
22416;DHT22;12204;50.600;4.608;2024-02-28T15:38:34;20.40;72.10
22416;DHT22;12204;50.600;4.608;2024-02-28T15:43:38;20.40;72.20
22416;DHT22;12204;50.600;4.608;2024-02-28T15:48:41;20.40;71.70
22416;DHT22;12204;50.600;4.608;2024-02-28T15:53:46;20.40;71.60
22416;DHT22;12204;50.600;4.608;2024-02-28T15:58:51;20.40;71.60
22416;DHT22;12204;50.600;4.608;2024-02-28T16:03:54;20.40;71.70
22416;DHT22;12204;50.600;4.608;2024-02-28T16:08:59;20.40;71.70
22416;DHT22;12204;50.600;4.608;2024-02-28T16:14:02;20.40;72.50
22416;DHT22;12204;50.600;4.608;2024-02-28T16:19:06;20.40;71.70
22416;DHT22;12204;50.600;4.608;2024-02-28T16:24:24;20.50;71.90
22416;DHT22;12204;50.600;4.608;2024-02-28T16:29:27;20.40;71.90
22416;DHT22;12204;50.600;4.608;2024-02-28T16:34:32;20.40;71.90
22416;DHT22;12204;50.600;4.608;2024-02-28T16:39:39;20.40;72.40
22416;DHT22;12204;50.600;4.608;2024-02-28T16:44:42;20.40;73.10
22416;DHT22;12204;50.600;4.608;2024-02-28T16:49:46;20.50;73.70
22416;DHT22;12204;50.600;4.608;2024-02-28T16:54:50;20.50;74.90
22416;DHT22;12204;50.600;4.608;2024-02-28T16:59:54;20.60;76.20
22416;DHT22;12204;50.600;4.608;2024-02-28T17:04:59;20.60;72.70
22416;DHT22;12204;50.600;4.608;2024-02-28T17:10:04;20.60;71.60
22416;DHT22;12204;50.600;4.608;2024-02-28T17:15:09;20.50;70.80
22416;DHT22;12204;50.600;4.608;2024-02-28T17:20:13;20.50;71.70
22416;DHT22;12204;50.600;4.608;2024-02-28T17:25:18;20.50;72.30
22416;DHT22;12204;50.600;4.608;2024-02-28T17:30:22;20.50;72.60
22416;DHT22;12204;50.600;4.608;2024-02-28T17:35:25;20.50;73.00
22416;DHT22;12204;50.600;4.608;2024-02-28T17:40:32;20.50;73.20
22416;DHT22;12204;50.600;4.608;2024-02-28T17:45:35;20.60;73.30
22416;DHT22;12204;50.600;4.608;2024-02-28T17:50:39;20.60;73.30
22416;DHT22;12204;50.600;4.608;2024-02-28T17:55:44;20.60;73.60
22416;DHT22;12204;50.600;4.608;2024-02-28T18:00:47;20.50;73.50
22416;DHT22;12204;50.600;4.608;2024-02-28T18:05:51;20.60;74.00
22416;DHT22;12204;50.600;4.608;2024-02-28T18:10:56;20.60;74.00
22416;DHT22;12204;50.600;4.608;2024-02-28T18:15:59;20.60;74.90
22416;DHT22;12204;50.600;4.608;2024-02-28T18:21:03;20.80;74.80
22416;DHT22;12204;50.600;4.608;2024-02-28T18:26:08;21.00;74.30
22416;DHT22;12204;50.600;4.608;2024-02-28T18:31:13;21.20;73.80
22416;DHT22;12204;50.600;4.608;2024-02-28T18:36:17;21.40;73.40
22416;DHT22;12204;50.600;4.608;2024-02-28T18:41:22;21.50;72.80
22416;DHT22;12204;50.600;4.608;2024-02-28T18:46:26;21.60;72.40
22416;DHT22;12204;50.600;4.608;2024-02-28T18:51:29;21.70;72.10
22416;DHT22;12204;50.600;4.608;2024-02-28T18:56:34;21.80;71.90
22416;DHT22;12204;50.600;4.608;2024-02-28T19:01:38;21.80;71.80
22416;DHT22;12204;50.600;4.608;2024-02-28T19:06:43;21.80;71.60
22416;DHT22;12204;50.600;4.608;2024-02-28T19:11:49;21.90;71.50
22416;DHT22;12204;50.600;4.608;2024-02-28T19:16:53;21.90;71.40
22416;DHT22;12204;50.600;4.608;2024-02-28T19:21:57;21.90;71.30
22416;DHT22;12204;50.600;4.608;2024-02-28T19:27:02;21.90;71.20
22416;DHT22;12204;50.600;4.608;2024-02-28T19:32:05;21.90;71.20
22416;DHT22;12204;50.600;4.608;2024-02-28T19:37:09;21.90;71.20
22416;DHT22;12204;50.600;4.608;2024-02-28T19:42:14;21.80;71.20
22416;DHT22;12204;50.600;4.608;2024-02-28T19:47:17;21.80;71.30
22416;DHT22;12204;50.600;4.608;2024-02-28T19:52:21;21.80;71.30
22416;DHT22;12204;50.600;4.608;2024-02-28T19:57:26;21.80;71.40
22416;DHT22;12204;50.600;4.608;2024-02-28T20:02:29;21.70;71.40
22416;DHT22;12204;50.600;4.608;2024-02-28T20:07:33;21.70;71.40
22416;DHT22;12204;50.600;4.608;2024-02-28T20:12:37;21.70;71.40
22416;DHT22;12204;50.600;4.608;2024-02-28T20:17:41;21.70;71.50
22416;DHT22;12204;50.600;4.608;2024-02-28T20:22:45;21.60;71.50
22416;DHT22;12204;50.600;4.608;2024-02-28T20:27:51;21.60;71.60
22416;DHT22;12204;50.600;4.608;2024-02-28T20:32:55;21.60;71.70
22416;DHT22;12204;50.600;4.608;2024-02-28T20:37:58;21.50;71.60
22416;DHT22;12204;50.600;4.608;2024-02-28T20:43:04;21.50;71.60
22416;DHT22;12204;50.600;4.608;2024-02-28T20:48:07;21.40;71.70
22416;DHT22;12204;50.600;4.608;2024-02-28T20:53:11;21.40;71.80
22416;DHT22;12204;50.600;4.608;2024-02-28T20:58:16;21.30;71.90
22416;DHT22;12204;50.600;4.608;2024-02-28T21:03:20;21.30;72.10
22416;DHT22;12204;50.600;4.608;2024-02-28T21:08:23;21.30;72.20
22416;DHT22;12204;50.600;4.608;2024-02-28T21:13:28;21.30;72.40
22416;DHT22;12204;50.600;4.608;2024-02-28T21:18:31;21.30;72.50
22416;DHT22;12204;50.600;4.608;2024-02-28T21:23:36;21.20;72.20
22416;DHT22;12204;50.600;4.608;2024-02-28T21:28:40;21.30;73.20
22416;DHT22;12204;50.600;4.608;2024-02-28T21:33:44;21.30;73.20
22416;DHT22;12204;50.600;4.608;2024-02-28T21:38:48;21.40;73.90
22416;DHT22;12204;50.600;4.608;2024-02-28T21:43:54;21.40;74.20
22416;DHT22;12204;50.600;4.608;2024-02-28T21:49:00;21.40;74.10
22416;DHT22;12204;50.600;4.608;2024-02-28T21:54:14;21.50;74.00
22416;DHT22;12204;50.600;4.608;2024-02-28T21:59:19;21.50;74.10
22416;DHT22;12204;50.600;4.608;2024-02-28T22:04:22;21.50;74.00
22416;DHT22;12204;50.600;4.608;2024-02-28T22:09:25;21.50;74.00
22416;DHT22;12204;50.600;4.608;2024-02-28T22:14:30;21.50;74.00
22416;DHT22;12204;50.600;4.608;2024-02-28T22:19:34;21.50;74.00
22416;DHT22;12204;50.600;4.608;2024-02-28T22:24:37;21.50;74.10
22416;DHT22;12204;50.600;4.608;2024-02-28T22:29:42;21.50;73.90
22416;DHT22;12204;50.600;4.608;2024-02-28T22:34:46;21.50;73.10
22416;DHT22;12204;50.600;4.608;2024-02-28T22:39:49;21.50;72.80
22416;DHT22;12204;50.600;4.608;2024-02-28T22:44:54;21.50;72.80
22416;DHT22;12204;50.600;4.608;2024-02-28T22:49:57;21.50;72.80
22416;DHT22;12204;50.600;4.608;2024-02-28T22:55:01;21.60;72.90
22416;DHT22;12204;50.600;4.608;2024-02-28T23:00:09;21.60;72.90
22416;DHT22;12204;50.600;4.608;2024-02-28T23:05:31;21.60;72.90
22416;DHT22;12204;50.600;4.608;2024-02-28T23:10:36;21.60;72.90
22416;DHT22;12204;50.600;4.608;2024-02-28T23:15:41;21.60;72.80
22416;DHT22;12204;50.600;4.608;2024-02-28T23:20:45;21.60;72.90
22416;DHT22;12204;50.600;4.608;2024-02-28T23:25:49;21.60;73.20
22416;DHT22;12204;50.600;4.608;2024-02-28T23:30:54;21.60;73.10
22416;DHT22;12204;50.600;4.608;2024-02-28T23:35:57;21.60;73.10
22416;DHT22;12204;50.600;4.608;2024-02-28T23:41:01;21.60;73.00
22416;DHT22;12204;50.600;4.608;2024-02-28T23:46:06;21.60;73.20
22416;DHT22;12204;50.600;4.608;2024-02-28T23:51:10;21.60;73.00
22416;DHT22;12204;50.600;4.608;2024-02-28T23:56:13;21.60;73.40
